ΕΜΥ, Εθνική Μετεωρολογική Υπηρεσία - Δελτία Καιρού, Προγνώσεις

ΑΕΡΟΝΑΥΤΙΛΙΑ

GREEK AIRPORTS CODES

LGLE 281100Z VRB02KT 9999 FEW018 BKN020 10/07 Q1021 RMK OVC080=

EUROPEAN AIRPORTS CODES

LFPO 281100Z 28005KT 9999 SCT008 BKN013 07/06 Q1038 NOSIG=